createdAt,value
2019-01-29T00:03:59.785Z,996.8
2019-01-29T00:08:59.560Z,996.8
2019-01-29T00:14:00.423Z,996.9
2019-01-29T00:19:00.009Z,996.9
2019-01-29T00:23:59.736Z,996.9
2019-01-29T00:29:00.335Z,996.9
2019-01-29T00:34:00.080Z,997
2019-01-29T00:38:59.764Z,997
2019-01-29T00:44:00.399Z,997.3
2019-01-29T00:49:00.036Z,997.3
2019-01-29T00:53:59.653Z,997.3
2019-01-29T00:59:00.168Z,997.3
2019-01-29T01:03:59.898Z,997.5
2019-01-29T01:09:00.557Z,997.5
2019-01-29T01:14:00.203Z,997.6
2019-01-29T01:18:59.856Z,997.6
2019-01-29T01:24:00.480Z,997.6
2019-01-29T01:29:00.095Z,997.6
2019-01-29T01:34:00.053Z,997.7
2019-01-29T01:38:59.585Z,997.7
2019-01-29T01:44:00.246Z,998
2019-01-29T01:48:59.823Z,998
2019-01-29T01:54:00.439Z,998
2019-01-29T01:59:00.012Z,998
2019-01-29T02:04:00.694Z,998.1
2019-01-29T02:08:59.681Z,998.1
2019-01-29T02:14:00.465Z,998.1
2019-01-29T02:19:00.697Z,998.1
2019-01-29T02:24:00.350Z,998.1
2019-01-29T02:28:59.900Z,998.1
2019-01-29T02:34:00.014Z,998.1
2019-01-29T02:39:00.596Z,998.1
2019-01-29T02:44:00.420Z,998.2
2019-01-29T02:49:00.054Z,998.2
2019-01-29T02:54:00.323Z,998.2
2019-01-29T02:58:59.929Z,998.2
2019-01-29T03:04:00.675Z,998.3
2019-01-29T03:08:59.847Z,998.3
2019-01-29T03:14:00.680Z,998.3
2019-01-29T03:19:00.428Z,998.3
2019-01-29T03:24:00.203Z,998.3
2019-01-29T03:28:59.839Z,998.3
2019-01-29T03:33:59.834Z,998.4
2019-01-29T03:39:00.472Z,998.4
2019-01-29T03:44:00.186Z,998.6
2019-01-29T03:48:59.926Z,998.6
2019-01-29T03:53:59.862Z,998.6
2019-01-29T03:59:00.386Z,998.6
2019-01-29T04:04:00.129Z,998.6
2019-01-29T04:09:00.459Z,998.6
2019-01-29T04:14:00.139Z,998.8
2019-01-29T04:19:00.185Z,998.8
2019-01-29T04:23:59.854Z,998.8
2019-01-29T04:29:00.651Z,998.8
2019-01-29T04:34:00.345Z,999
2019-01-29T04:38:59.953Z,999
2019-01-29T04:44:00.687Z,999
2019-01-29T04:49:00.269Z,999
2019-01-29T04:54:00.029Z,999
2019-01-29T04:59:00.750Z,999
2019-01-29T05:04:00.632Z,999.1
2019-01-29T05:09:00.745Z,999.1
2019-01-29T05:14:00.479Z,999.1
2019-01-29T05:19:00.138Z,999.1
2019-01-29T05:24:06.616Z,999.1
2019-01-29T05:29:00.113Z,999.1
2019-01-29T05:34:00.233Z,999.2
2019-01-29T05:38:59.899Z,999.2
2019-01-29T05:44:00.567Z,999.3
2019-01-29T05:49:00.385Z,999.3
2019-01-29T05:54:00.318Z,999.2
2019-01-29T05:58:59.991Z,999.2
2019-01-29T06:04:00.789Z,999.3
2019-01-29T06:09:00.451Z,999.3
2019-01-29T06:14:00.105Z,999.5
2019-01-29T06:19:00.736Z,999.5
2019-01-29T06:24:00.412Z,999.5
2019-01-29T06:28:59.975Z,999.5
2019-01-29T06:34:00.839Z,999.5
2019-01-29T06:39:00.559Z,999.5
2019-01-29T06:44:00.145Z,999.6
2019-01-29T06:49:00.800Z,999.6
2019-01-29T06:54:00.453Z,999.6
2019-01-29T06:59:00.043Z,999.6
2019-01-29T07:04:00.880Z,999.8
2019-01-29T07:09:00.781Z,999.8
2019-01-29T07:14:00.371Z,1000.1
2019-01-29T07:19:00.677Z,1000.1
2019-01-29T07:24:00.394Z,1000.1
2019-01-29T07:29:00.129Z,1000.1
2019-01-29T07:34:00.269Z,1000.1
2019-01-29T07:39:00.896Z,1000.1
2019-01-29T07:44:00.479Z,1000.1
2019-01-29T07:49:00.004Z,1000.1
2019-01-29T07:54:00.108Z,1000.1
2019-01-29T07:59:00.639Z,1000.1
2019-01-29T08:04:00.328Z,1000.1
2019-01-29T08:09:00.422Z,1000.1
2019-01-29T08:14:00.334Z,1000.1
2019-01-29T08:19:00.939Z,1000.1
2019-01-29T08:24:00.565Z,1000.1
2019-01-29T08:29:00.146Z,1000.1
2019-01-29T08:34:00.853Z,1000.4
2019-01-29T08:39:00.402Z,1000.4
2019-01-29T08:44:00.118Z,1000.6
2019-01-29T08:49:00.013Z,1000.6
2019-01-29T08:54:00.973Z,1000.6
2019-01-29T08:59:00.622Z,1000.6
2019-01-29T09:04:00.278Z,1000.7
2019-01-29T09:09:00.506Z,1000.7
2019-01-29T09:14:00.071Z,1000.7
2019-01-29T09:19:00.709Z,1000.7
2019-01-29T09:24:00.277Z,1000.7
2019-01-29T09:29:00.880Z,1000.7
2019-01-29T09:34:00.664Z,1000.7
2019-01-29T09:39:00.362Z,1000.7
2019-01-29T09:44:00.977Z,1000.9
2019-01-29T09:49:00.696Z,1000.9
2019-01-29T09:54:01.044Z,1000.9
2019-01-29T09:59:00.676Z,1000.9
2019-01-29T10:04:00.404Z,1000.8
2019-01-29T10:09:00.350Z,1000.8
2019-01-29T10:14:01.085Z,1000.8
2019-01-29T10:19:00.744Z,1000.8
2019-01-29T10:24:00.446Z,1000.8
2019-01-29T10:29:00.221Z,1000.8
2019-01-29T10:34:00.302Z,1000.7
2019-01-29T10:39:01.004Z,1000.7
2019-01-29T10:44:00.685Z,1000.6
2019-01-29T10:49:00.672Z,1000.6
2019-01-29T10:54:00.317Z,1000.6
2019-01-29T10:59:01.048Z,1000.6
2019-01-29T11:04:00.975Z,1000.5
2019-01-29T11:09:00.874Z,1000.5
2019-01-29T11:14:00.682Z,1000.5
2019-01-29T11:19:03.276Z,1000.5
2019-01-29T11:24:00.333Z,1000.5
2019-01-29T11:29:00.970Z,1000.5
2019-01-29T11:34:00.801Z,1000.5
2019-01-29T11:39:00.386Z,1000.5
2019-01-29T11:44:00.977Z,1000.4
2019-01-29T11:49:02.644Z,1000.4
2019-01-29T11:54:00.410Z,1000.4
2019-01-29T11:59:00.976Z,1000.4
2019-01-29T12:04:00.763Z,1000.4
2019-01-29T12:09:01.031Z,1000.4
2019-01-29T12:14:00.976Z,1000.3
2019-01-29T12:19:00.566Z,1000.3
2019-01-29T12:24:01.239Z,1000.3
2019-01-29T12:29:00.834Z,1000.3
2019-01-29T12:34:01.069Z,1000.3
2019-01-29T12:39:00.856Z,1000.3
2019-01-29T12:44:00.523Z,1000.2
2019-01-29T12:49:00.505Z,1000.2
2019-01-29T12:54:00.428Z,1000.2
2019-01-29T12:59:01.666Z,1000.2
2019-01-29T13:04:00.533Z,1000.2
2019-01-29T13:09:00.860Z,1000.2
2019-01-29T13:14:00.780Z,1000.2
2019-01-29T13:19:00.819Z,1000.2
2019-01-29T13:24:00.690Z,1000.2
2019-01-29T13:29:01.349Z,1000.2
2019-01-29T13:34:01.395Z,1000.2
2019-01-29T13:39:01.169Z,1000.2
2019-01-29T13:44:00.929Z,1000.2
2019-01-29T13:49:00.450Z,1000.2
2019-01-29T13:54:00.430Z,1000.2
2019-01-29T13:59:01.127Z,1000.2
2019-01-29T14:04:06.077Z,1000.2
2019-01-29T14:09:01.548Z,1000.2
2019-01-29T14:14:01.478Z,1000.1
2019-01-29T14:19:01.224Z,1000.1
2019-01-29T14:24:00.881Z,1000.1
2019-01-29T14:29:01.226Z,1000.1
2019-01-29T14:34:01.177Z,1000.1
2019-01-29T14:39:00.866Z,1000.1
2019-01-29T14:44:00.593Z,1000.1
2019-01-29T14:49:01.308Z,1000.1
2019-01-29T14:54:00.951Z,1000.1
2019-01-29T14:59:00.505Z,1000.1
2019-01-29T15:04:01.103Z,1000.1
2019-01-29T15:09:00.829Z,1000.1
2019-01-29T15:14:00.704Z,1000.1
2019-01-29T15:19:01.460Z,1000.1
2019-01-29T15:24:01.445Z,1000.1
2019-01-29T15:29:01.173Z,1000.1
2019-01-29T15:34:00.992Z,1000.1
2019-01-29T15:39:00.803Z,1000.1
2019-01-29T15:44:01.125Z,1000.1
2019-01-29T15:49:00.806Z,1000.1
2019-01-29T15:54:00.561Z,1000.1
2019-01-29T15:59:01.535Z,1000.1
2019-01-29T16:04:01.626Z,1000.1
2019-01-29T16:09:00.641Z,1000.1
2019-01-29T16:14:01.114Z,1000.1
2019-01-29T16:19:00.854Z,1000.1
2019-01-29T16:24:00.661Z,1000.1
2019-01-29T16:29:01.546Z,1000.1
2019-01-29T16:34:01.351Z,1000.1
2019-01-29T16:39:01.088Z,1000.1
2019-01-29T16:44:00.865Z,1000
2019-01-29T16:49:01.702Z,1000
2019-01-29T16:54:01.530Z,1000
2019-01-29T16:59:01.473Z,1000
2019-01-29T17:04:01.353Z,999.8
2019-01-29T17:09:01.350Z,999.8
2019-01-29T17:14:01.288Z,999.8
2019-01-29T17:19:01.102Z,999.8
2019-01-29T17:24:00.861Z,999.8
2019-01-29T17:29:01.494Z,999.8
2019-01-29T17:34:01.293Z,999.8
2019-01-29T17:39:01.095Z,999.8
2019-01-29T17:44:00.806Z,999.8
2019-01-29T17:49:01.685Z,999.8
2019-01-29T17:54:00.826Z,999.8
2019-01-29T17:59:01.672Z,999.8
2019-01-29T18:04:01.705Z,999.8
2019-01-29T18:09:01.521Z,999.8
2019-01-29T18:14:00.745Z,999.7
2019-01-29T18:19:01.569Z,999.7
2019-01-29T18:24:01.418Z,999.7
2019-01-29T18:29:01.076Z,999.7
2019-01-29T18:34:01.758Z,999.7
2019-01-29T18:39:01.485Z,999.7
2019-01-29T18:44:01.122Z,999.7
2019-01-29T18:49:01.338Z,999.7
2019-01-29T18:54:01.023Z,999.7
2019-01-29T18:59:01.630Z,999.7
2019-01-29T19:04:01.493Z,999.7
2019-01-29T19:09:01.407Z,999.7
2019-01-29T19:14:00.826Z,999.6
2019-01-29T19:19:01.471Z,999.6
2019-01-29T19:24:01.266Z,999.6
2019-01-29T19:29:00.819Z,999.6
2019-01-29T19:34:01.665Z,999.6
2019-01-29T19:39:01.415Z,999.6
2019-01-29T19:44:01.139Z,999.6
2019-01-29T19:49:00.877Z,999.6
2019-01-29T19:54:01.641Z,999.6
2019-01-29T19:59:01.415Z,999.6
2019-01-29T20:04:01.297Z,999.6
2019-01-29T20:09:01.067Z,999.6
2019-01-29T20:14:01.392Z,999.6
2019-01-29T20:19:01.035Z,999.6
2019-01-29T20:24:01.661Z,999.6
2019-01-29T20:29:01.315Z,999.6
2019-01-29T20:34:01.068Z,999.6
2019-01-29T20:39:01.759Z,999.6
2019-01-29T20:44:01.450Z,999.7
2019-01-29T20:49:01.114Z,999.7
2019-01-29T20:54:01.876Z,999.7
2019-01-29T20:59:01.565Z,999.7
2019-01-29T21:04:01.403Z,999.7
2019-01-29T21:09:01.313Z,999.7
2019-01-29T21:14:01.406Z,999.6
2019-01-29T21:19:01.211Z,999.6
2019-01-29T21:24:01.920Z,999.6
2019-01-29T21:29:03.258Z,999.6
2019-01-29T21:34:01.341Z,999.6
2019-01-29T21:39:01.051Z,999.6
2019-01-29T21:44:01.707Z,999.6
2019-01-29T21:49:01.534Z,999.6
2019-01-29T21:54:01.409Z,999.6
2019-01-29T21:59:01.102Z,999.6
2019-01-29T22:04:02.029Z,999.5
2019-01-29T22:09:01.959Z,999.5
2019-01-29T22:14:01.922Z,999.2
2019-01-29T22:19:01.652Z,999.2
2019-01-29T22:24:01.555Z,999.2
2019-01-29T22:29:01.306Z,999.2
2019-01-29T22:34:01.740Z,999.1
2019-01-29T22:39:01.461Z,999.1
2019-01-29T22:44:01.191Z,999.1
2019-01-29T22:49:01.562Z,999.1
2019-01-29T22:54:01.610Z,999.1
2019-01-29T22:59:01.767Z,999.1
2019-01-29T23:04:01.348Z,999
2019-01-29T23:09:01.433Z,999
2019-01-29T23:14:01.302Z,998.8
2019-01-29T23:19:01.329Z,998.8
2019-01-29T23:24:01.155Z,998.8
2019-01-29T23:29:01.735Z,998.8
2019-01-29T23:34:01.799Z,998.7
2019-01-29T23:39:01.581Z,998.7
2019-01-29T23:44:01.336Z,998.6
2019-01-29T23:49:01.303Z,998.6
2019-01-29T23:54:01.993Z,998.6
2019-01-29T23:59:01.384Z,998.6
